sensor_id;sensor_type;location;lat;lon;timestamp;pressure;altitude;pressure_sealevel;temperature;humidity
38718;BME280;24468;52.128;9.278;2023-02-18T00:01:13;101090.75;;;8.93;100.00
38718;BME280;24468;52.128;9.278;2023-02-18T00:03:40;101086.13;;;8.98;100.00
38718;BME280;24468;52.128;9.278;2023-02-18T00:06:13;101088.34;;;9.13;100.00
38718;BME280;24468;52.128;9.278;2023-02-18T00:08:42;101090.47;;;9.02;100.00
38718;BME280;24468;52.128;9.278;2023-02-18T00:11:08;101086.38;;;8.88;100.00
38718;BME280;24468;52.128;9.278;2023-02-18T00:13:34;101090.38;;;9.05;100.00
38718;BME280;24468;52.128;9.278;2023-02-18T00:16:05;101088.34;;;8.83;100.00
38718;BME280;24468;52.128;9.278;2023-02-18T00:18:31;101091.13;;;8.80;100.00
38718;BME280;24468;52.128;9.278;2023-02-18T00:20:57;101086.25;;;8.93;100.00
38718;BME280;24468;52.128;9.278;2023-02-18T00:23:23;101100.16;;;8.78;100.00
38718;BME280;24468;52.128;9.278;2023-02-18T00:25:48;101095.78;;;8.74;100.00
38718;BME280;24468;52.128;9.278;2023-02-18T00:28:14;101087.59;;;8.77;100.00
38718;BME280;24468;52.128;9.278;2023-02-18T00:30:41;101081.25;;;8.79;100.00
38718;BME280;24468;52.128;9.278;2023-02-18T00:33:06;101077.66;;;8.80;100.00
38718;BME280;24468;52.128;9.278;2023-02-18T00:35:32;101087.59;;;8.78;100.00
38718;BME280;24468;52.128;9.278;2023-02-18T00:37:57;101075.69;;;8.85;100.00
38718;BME280;24468;52.128;9.278;2023-02-18T00:40:23;101080.47;;;8.76;100.00
38718;BME280;24468;52.128;9.278;2023-02-18T00:42:48;101079.50;;;8.78;100.00
38718;BME280;24468;52.128;9.278;2023-02-18T00:45:14;101080.00;;;8.93;100.00
38718;BME280;24468;52.128;9.278;2023-02-18T00:47:40;101084.69;;;8.86;100.00
38718;BME280;24468;52.128;9.278;2023-02-18T00:50:07;101088.06;;;8.93;100.00
38718;BME280;24468;52.128;9.278;2023-02-18T00:52:33;101089.56;;;9.03;100.00
38718;BME280;24468;52.128;9.278;2023-02-18T00:54:58;101086.31;;;8.92;100.00
38718;BME280;24468;52.128;9.278;2023-02-18T00:57:24;101098.72;;;8.64;100.00
38718;BME280;24468;52.128;9.278;2023-02-18T00:59:49;101086.09;;;8.66;100.00
38718;BME280;24468;52.128;9.278;2023-02-18T01:02:15;101088.09;;;8.91;100.00
38718;BME280;24468;52.128;9.278;2023-02-18T01:04:40;101085.25;;;8.97;100.00
38718;BME280;24468;52.128;9.278;2023-02-18T01:07:06;101095.03;;;9.00;100.00
38718;BME280;24468;52.128;9.278;2023-02-18T01:09:31;101083.06;;;8.80;100.00
38718;BME280;24468;52.128;9.278;2023-02-18T01:11:57;101082.69;;;8.93;100.00
38718;BME280;24468;52.128;9.278;2023-02-18T01:14:23;101083.75;;;8.87;100.00
38718;BME280;24468;52.128;9.278;2023-02-18T01:16:48;101084.06;;;8.75;100.00
38718;BME280;24468;52.128;9.278;2023-02-18T01:19:14;101091.13;;;8.48;100.00
38718;BME280;24468;52.128;9.278;2023-02-18T01:21:39;101082.88;;;8.86;100.00
38718;BME280;24468;52.128;9.278;2023-02-18T01:24:05;101074.91;;;8.82;100.00
38718;BME280;24468;52.128;9.278;2023-02-18T01:26:31;101082.00;;;8.86;100.00
38718;BME280;24468;52.128;9.278;2023-02-18T01:28:56;101084.53;;;8.90;100.00
38718;BME280;24468;52.128;9.278;2023-02-18T01:31:22;101073.97;;;9.14;100.00
38718;BME280;24468;52.128;9.278;2023-02-18T01:33:47;101083.78;;;9.17;100.00
38718;BME280;24468;52.128;9.278;2023-02-18T01:36:13;101076.56;;;9.17;100.00
38718;BME280;24468;52.128;9.278;2023-02-18T01:38:39;101074.94;;;9.11;100.00
38718;BME280;24468;52.128;9.278;2023-02-18T01:41:05;101086.97;;;9.00;100.00
38718;BME280;24468;52.128;9.278;2023-02-18T01:43:31;101080.56;;;9.04;100.00
38718;BME280;24468;52.128;9.278;2023-02-18T01:48:42;101074.13;;;8.78;100.00
38718;BME280;24468;52.128;9.278;2023-02-18T01:51:26;101075.50;;;8.62;100.00
38718;BME280;24468;52.128;9.278;2023-02-18T01:59:13;101056.53;;;9.27;100.00
38718;BME280;24468;52.128;9.278;2023-02-18T02:01:43;101048.91;;;9.12;100.00
38718;BME280;24468;52.128;9.278;2023-02-18T02:04:10;101049.34;;;9.28;100.00
38718;BME280;24468;52.128;9.278;2023-02-18T02:06:35;101047.91;;;9.16;100.00
38718;BME280;24468;52.128;9.278;2023-02-18T02:09:06;101040.16;;;9.05;100.00
38718;BME280;24468;52.128;9.278;2023-02-18T02:25:06;101027.16;;;9.48;100.00
38718;BME280;24468;52.128;9.278;2023-02-18T02:37:34;101014.25;;;9.01;100.00
38718;BME280;24468;52.128;9.278;2023-02-18T02:45:57;101009.78;;;9.30;100.00
38718;BME280;24468;52.128;9.278;2023-02-18T02:48:44;100993.56;;;9.31;100.00
38718;BME280;24468;52.128;9.278;2023-02-18T02:51:20;101004.44;;;9.28;100.00
38718;BME280;24468;52.128;9.278;2023-02-18T02:53:49;100992.69;;;9.31;100.00
38718;BME280;24468;52.128;9.278;2023-02-18T02:56:23;100976.66;;;9.26;100.00
38718;BME280;24468;52.128;9.278;2023-02-18T02:59:14;100982.38;;;9.16;100.00
38718;BME280;24468;52.128;9.278;2023-02-18T03:02:05;100966.34;;;9.12;100.00
38718;BME280;24468;52.128;9.278;2023-02-18T03:10:25;100958.00;;;9.48;100.00
38718;BME280;24468;52.128;9.278;2023-02-18T03:13:32;100979.75;;;9.42;100.00
38718;BME280;24468;52.128;9.278;2023-02-18T03:19:02;100973.16;;;9.52;100.00
38718;BME280;24468;52.128;9.278;2023-02-18T03:22:10;100961.38;;;9.55;100.00
38718;BME280;24468;52.128;9.278;2023-02-18T03:24:50;100960.81;;;9.45;100.00
38718;BME280;24468;52.128;9.278;2023-02-18T03:27:35;100954.56;;;9.71;100.00
38718;BME280;24468;52.128;9.278;2023-02-18T03:30:12;100951.63;;;9.77;100.00
38718;BME280;24468;52.128;9.278;2023-02-18T03:32:38;100946.13;;;9.54;100.00
38718;BME280;24468;52.128;9.278;2023-02-18T03:35:14;100935.31;;;9.55;100.00
38718;BME280;24468;52.128;9.278;2023-02-18T03:38:00;100928.69;;;9.39;100.00
38718;BME280;24468;52.128;9.278;2023-02-18T03:40:29;100915.38;;;9.61;100.00
38718;BME280;24468;52.128;9.278;2023-02-18T03:42:58;100922.25;;;9.70;100.00
38718;BME280;24468;52.128;9.278;2023-02-18T03:45:25;100901.28;;;9.79;100.00
38718;BME280;24468;52.128;9.278;2023-02-18T03:47:51;100891.91;;;9.90;100.00
38718;BME280;24468;52.128;9.278;2023-02-18T03:50:17;100900.66;;;9.71;100.00
38718;BME280;24468;52.128;9.278;2023-02-18T03:52:42;100901.50;;;9.47;100.00
38718;BME280;24468;52.128;9.278;2023-02-18T03:55:08;100894.78;;;9.33;100.00
38718;BME280;24468;52.128;9.278;2023-02-18T03:57:34;100900.88;;;9.39;100.00
38718;BME280;24468;52.128;9.278;2023-02-18T04:00:00;100889.78;;;9.74;100.00
38718;BME280;24468;52.128;9.278;2023-02-18T04:02:25;100893.13;;;9.81;100.00
38718;BME280;24468;52.128;9.278;2023-02-18T04:04:51;100892.09;;;9.85;100.00
38718;BME280;24468;52.128;9.278;2023-02-18T04:07:17;100877.44;;;9.92;100.00
38718;BME280;24468;52.128;9.278;2023-02-18T04:09:42;100879.31;;;10.15;100.00
38718;BME280;24468;52.128;9.278;2023-02-18T04:12:08;100881.53;;;10.29;100.00
38718;BME280;24468;52.128;9.278;2023-02-18T04:14:33;100871.66;;;10.28;100.00
38718;BME280;24468;52.128;9.278;2023-02-18T04:16:59;100866.09;;;10.33;100.00
38718;BME280;24468;52.128;9.278;2023-02-18T04:19:25;100867.66;;;10.15;100.00
38718;BME280;24468;52.128;9.278;2023-02-18T04:21:51;100868.88;;;10.31;100.00
38718;BME280;24468;52.128;9.278;2023-02-18T04:24:16;100862.69;;;10.28;100.00
38718;BME280;24468;52.128;9.278;2023-02-18T04:26:42;100870.19;;;10.43;100.00
38718;BME280;24468;52.128;9.278;2023-02-18T04:29:07;100859.16;;;10.00;100.00
38718;BME280;24468;52.128;9.278;2023-02-18T04:31:33;100845.84;;;10.21;100.00
38718;BME280;24468;52.128;9.278;2023-02-18T04:33:58;100858.03;;;10.08;100.00
38718;BME280;24468;52.128;9.278;2023-02-18T04:36:24;100861.16;;;9.95;100.00
38718;BME280;24468;52.128;9.278;2023-02-18T04:38:49;100850.94;;;10.05;100.00
38718;BME280;24468;52.128;9.278;2023-02-18T04:41:15;100851.69;;;10.09;100.00
38718;BME280;24468;52.128;9.278;2023-02-18T04:43:41;100852.06;;;9.98;100.00
38718;BME280;24468;52.128;9.278;2023-02-18T04:46:06;100851.50;;;10.13;100.00
38718;BME280;24468;52.128;9.278;2023-02-18T04:48:32;100839.91;;;10.11;100.00
38718;BME280;24468;52.128;9.278;2023-02-18T04:50:59;100849.28;;;10.01;100.00
38718;BME280;24468;52.128;9.278;2023-02-18T04:53:25;100838.28;;;10.07;100.00
38718;BME280;24468;52.128;9.278;2023-02-18T04:55:51;100835.22;;;9.93;100.00
38718;BME280;24468;52.128;9.278;2023-02-18T04:58:19;100835.19;;;10.18;100.00
38718;BME280;24468;52.128;9.278;2023-02-18T05:00:45;100835.84;;;9.99;100.00
38718;BME280;24468;52.128;9.278;2023-02-18T05:03:10;100831.97;;;9.83;100.00
38718;BME280;24468;52.128;9.278;2023-02-18T05:05:36;100831.47;;;9.97;100.00
38718;BME280;24468;52.128;9.278;2023-02-18T05:08:03;100830.47;;;9.99;100.00
38718;BME280;24468;52.128;9.278;2023-02-18T05:10:29;100821.06;;;9.86;100.00
38718;BME280;24468;52.128;9.278;2023-02-18T05:12:54;100820.63;;;9.73;100.00
38718;BME280;24468;52.128;9.278;2023-02-18T05:15:20;100811.63;;;9.74;100.00
38718;BME280;24468;52.128;9.278;2023-02-18T05:17:45;100820.19;;;9.86;100.00
38718;BME280;24468;52.128;9.278;2023-02-18T05:20:11;100805.72;;;10.12;100.00
38718;BME280;24468;52.128;9.278;2023-02-18T05:22:37;100802.16;;;10.11;100.00
38718;BME280;24468;52.128;9.278;2023-02-18T05:25:04;100799.94;;;10.22;100.00
38718;BME280;24468;52.128;9.278;2023-02-18T05:27:29;100792.78;;;10.21;100.00
38718;BME280;24468;52.128;9.278;2023-02-18T05:29:55;100787.63;;;10.15;100.00
38718;BME280;24468;52.128;9.278;2023-02-18T05:32:22;100774.47;;;10.31;100.00
38718;BME280;24468;52.128;9.278;2023-02-18T05:34:48;100775.28;;;10.33;100.00
38718;BME280;24468;52.128;9.278;2023-02-18T05:37:13;100777.06;;;10.34;100.00
38718;BME280;24468;52.128;9.278;2023-02-18T05:39:40;100769.56;;;10.41;100.00
38718;BME280;24468;52.128;9.278;2023-02-18T05:42:06;100775.78;;;10.43;100.00
38718;BME280;24468;52.128;9.278;2023-02-18T05:44:31;100756.09;;;10.41;100.00
38718;BME280;24468;52.128;9.278;2023-02-18T05:47:01;100755.97;;;10.44;100.00
38718;BME280;24468;52.128;9.278;2023-02-18T05:49:28;100744.03;;;10.50;100.00
38718;BME280;24468;52.128;9.278;2023-02-18T05:51:54;100730.69;;;10.46;100.00
38718;BME280;24468;52.128;9.278;2023-02-18T05:54:20;100728.00;;;10.46;100.00
38718;BME280;24468;52.128;9.278;2023-02-18T05:56:46;100728.06;;;10.45;100.00
38718;BME280;24468;52.128;9.278;2023-02-18T05:59:12;100728.81;;;10.49;100.00
38718;BME280;24468;52.128;9.278;2023-02-18T06:01:37;100724.72;;;10.38;100.00
38718;BME280;24468;52.128;9.278;2023-02-18T06:04:03;100727.00;;;10.49;100.00
38718;BME280;24468;52.128;9.278;2023-02-18T06:06:28;100731.66;;;10.22;100.00
38718;BME280;24468;52.128;9.278;2023-02-18T06:08:54;100714.97;;;10.12;100.00
38718;BME280;24468;52.128;9.278;2023-02-18T06:11:19;100711.47;;;9.87;100.00
38718;BME280;24468;52.128;9.278;2023-02-18T06:13:45;100705.53;;;10.00;100.00
38718;BME280;24468;52.128;9.278;2023-02-18T06:16:11;100699.84;;;10.08;100.00
38718;BME280;24468;52.128;9.278;2023-02-18T06:18:37;100692.31;;;10.16;100.00
38718;BME280;24468;52.128;9.278;2023-02-18T06:21:03;100699.72;;;10.35;100.00
38718;BME280;24468;52.128;9.278;2023-02-18T06:23:29;100690.91;;;10.52;100.00
38718;BME280;24468;52.128;9.278;2023-02-18T06:25:54;100691.63;;;10.35;100.00
38718;BME280;24468;52.128;9.278;2023-02-18T06:28:20;100685.84;;;10.44;100.00
38718;BME280;24468;52.128;9.278;2023-02-18T06:30:45;100669.53;;;10.47;100.00
38718;BME280;24468;52.128;9.278;2023-02-18T06:33:12;100667.47;;;10.54;100.00
38718;BME280;24468;52.128;9.278;2023-02-18T06:35:38;100674.00;;;10.48;100.00
38718;BME280;24468;52.128;9.278;2023-02-18T06:38:03;100658.88;;;10.44;100.00
38718;BME280;24468;52.128;9.278;2023-02-18T06:40:29;100661.06;;;10.56;100.00
38718;BME280;24468;52.128;9.278;2023-02-18T06:42:54;100671.78;;;10.36;100.00
38718;BME280;24468;52.128;9.278;2023-02-18T06:45:20;100664.53;;;10.38;100.00
38718;BME280;24468;52.128;9.278;2023-02-18T06:47:46;100657.47;;;10.34;100.00
38718;BME280;24468;52.128;9.278;2023-02-18T06:50:12;100646.38;;;10.41;100.00
38718;BME280;24468;52.128;9.278;2023-02-18T06:52:37;100652.41;;;10.48;100.00
38718;BME280;24468;52.128;9.278;2023-02-18T06:55:07;100636.91;;;10.53;100.00
38718;BME280;24468;52.128;9.278;2023-02-18T06:57:34;100633.13;;;10.57;100.00
38718;BME280;24468;52.128;9.278;2023-02-18T06:59:59;100634.47;;;10.47;100.00
38718;BME280;24468;52.128;9.278;2023-02-18T07:02:26;100633.94;;;10.59;100.00
38718;BME280;24468;52.128;9.278;2023-02-18T07:04:52;100619.50;;;10.60;100.00
38718;BME280;24468;52.128;9.278;2023-02-18T07:07:17;100633.06;;;10.59;100.00
38718;BME280;24468;52.128;9.278;2023-02-18T07:09:43;100629.47;;;10.58;100.00
38718;BME280;24468;52.128;9.278;2023-02-18T07:12:09;100621.97;;;10.44;100.00
38718;BME280;24468;52.128;9.278;2023-02-18T07:14:34;100614.56;;;10.50;100.00
38718;BME280;24468;52.128;9.278;2023-02-18T07:17:00;100598.53;;;10.46;100.00
38718;BME280;24468;52.128;9.278;2023-02-18T07:19:25;100607.16;;;10.55;100.00
38718;BME280;24468;52.128;9.278;2023-02-18T07:21:51;100597.47;;;10.51;100.00
38718;BME280;24468;52.128;9.278;2023-02-18T07:24:18;100583.97;;;10.51;100.00
38718;BME280;24468;52.128;9.278;2023-02-18T07:26:44;100583.75;;;10.55;100.00
38718;BME280;24468;52.128;9.278;2023-02-18T07:29:09;100583.75;;;10.76;100.00
38718;BME280;24468;52.128;9.278;2023-02-18T07:31:35;100586.53;;;10.74;100.00
38718;BME280;24468;52.128;9.278;2023-02-18T07:34:02;100594.28;;;10.61;100.00
38718;BME280;24468;52.128;9.278;2023-02-18T07:36:28;100569.59;;;10.71;100.00
38718;BME280;24468;52.128;9.278;2023-02-18T07:38:53;100563.53;;;10.65;100.00
38718;BME280;24468;52.128;9.278;2023-02-18T07:41:21;100567.31;;;10.61;100.00
38718;BME280;24468;52.128;9.278;2023-02-18T07:43:47;100574.91;;;10.72;100.00
38718;BME280;24468;52.128;9.278;2023-02-18T07:46:14;100581.06;;;10.55;100.00
38718;BME280;24468;52.128;9.278;2023-02-18T07:48:39;100577.75;;;10.49;100.00
38718;BME280;24468;52.128;9.278;2023-02-18T07:51:07;100565.09;;;10.51;100.00
38718;BME280;24468;52.128;9.278;2023-02-18T07:53:33;100589.69;;;10.63;100.00
38718;BME280;24468;52.128;9.278;2023-02-18T07:56:00;100569.53;;;10.52;100.00
38718;BME280;24468;52.128;9.278;2023-02-18T07:58:33;100574.59;;;10.59;100.00
38718;BME280;24468;52.128;9.278;2023-02-18T08:00:59;100567.78;;;10.51;100.00
38718;BME280;24468;52.128;9.278;2023-02-18T08:03:29;100540.81;;;10.51;100.00
38718;BME280;24468;52.128;9.278;2023-02-18T08:05:55;100547.47;;;10.62;100.00
38718;BME280;24468;52.128;9.278;2023-02-18T08:08:25;100566.63;;;10.56;100.00
38718;BME280;24468;52.128;9.278;2023-02-18T08:10:53;100547.72;;;10.77;100.00
38718;BME280;24468;52.128;9.278;2023-02-18T08:13:18;100564.66;;;10.60;100.00
38718;BME280;24468;52.128;9.278;2023-02-18T08:15:44;100566.78;;;10.53;100.00
38718;BME280;24468;52.128;9.278;2023-02-18T08:18:21;100573.13;;;10.73;100.00
38718;BME280;24468;52.128;9.278;2023-02-18T08:20:48;100577.69;;;10.71;100.00
38718;BME280;24468;52.128;9.278;2023-02-18T08:23:15;100560.94;;;10.83;100.00
38718;BME280;24468;52.128;9.278;2023-02-18T08:25:45;100547.81;;;10.75;100.00
38718;BME280;24468;52.128;9.278;2023-02-18T08:28:12;100542.63;;;10.71;100.00
38718;BME280;24468;52.128;9.278;2023-02-18T08:30:37;100558.66;;;10.74;100.00
38718;BME280;24468;52.128;9.278;2023-02-18T08:33:03;100558.84;;;10.89;100.00
38718;BME280;24468;52.128;9.278;2023-02-18T08:35:28;100565.06;;;10.71;100.00
38718;BME280;24468;52.128;9.278;2023-02-18T08:37:54;100532.16;;;10.83;100.00
38718;BME280;24468;52.128;9.278;2023-02-18T08:40:20;100558.72;;;10.93;100.00
38718;BME280;24468;52.128;9.278;2023-02-18T08:42:46;100549.59;;;10.95;100.00
38718;BME280;24468;52.128;9.278;2023-02-18T08:45:11;100546.44;;;10.85;100.00
38718;BME280;24468;52.128;9.278;2023-02-18T08:47:37;100548.94;;;10.90;100.00
38718;BME280;24468;52.128;9.278;2023-02-18T08:50:04;100538.72;;;10.78;100.00
38718;BME280;24468;52.128;9.278;2023-02-18T08:52:30;100532.88;;;10.87;100.00
38718;BME280;24468;52.128;9.278;2023-02-18T08:54:55;100522.31;;;10.62;100.00
38718;BME280;24468;52.128;9.278;2023-02-18T08:57:21;100535.72;;;10.63;100.00
38718;BME280;24468;52.128;9.278;2023-02-18T08:59:46;100524.31;;;10.77;100.00
38718;BME280;24468;52.128;9.278;2023-02-18T09:02:13;100533.94;;;10.83;100.00
38718;BME280;24468;52.128;9.278;2023-02-18T09:04:39;100535.56;;;10.87;100.00
38718;BME280;24468;52.128;9.278;2023-02-18T09:07:04;100529.56;;;10.80;100.00
38718;BME280;24468;52.128;9.278;2023-02-18T09:09:30;100541.13;;;10.84;100.00
38718;BME280;24468;52.128;9.278;2023-02-18T09:11:56;100528.13;;;10.73;100.00
38718;BME280;24468;52.128;9.278;2023-02-18T09:14:22;100542.53;;;10.72;100.00
38718;BME280;24468;52.128;9.278;2023-02-18T09:16:47;100538.19;;;10.88;100.00
38718;BME280;24468;52.128;9.278;2023-02-18T09:19:15;100530.09;;;10.70;100.00
38718;BME280;24468;52.128;9.278;2023-02-18T09:21:40;100471.44;;;10.73;100.00
38718;BME280;24468;52.128;9.278;2023-02-18T09:24:06;100523.81;;;10.88;100.00
38718;BME280;24468;52.128;9.278;2023-02-18T09:26:32;100526.94;;;10.79;100.00
38718;BME280;24468;52.128;9.278;2023-02-18T09:28:57;100517.06;;;10.98;100.00
38718;BME280;24468;52.128;9.278;2023-02-18T09:31:25;100515.84;;;11.05;100.00
38718;BME280;24468;52.128;9.278;2023-02-18T09:33:58;100502.84;;;10.95;100.00
38718;BME280;24468;52.128;9.278;2023-02-18T09:36:25;100507.97;;;11.20;100.00
38718;BME280;24468;52.128;9.278;2023-02-18T09:38:50;100505.81;;;11.26;100.00
38718;BME280;24468;52.128;9.278;2023-02-18T09:44:24;100524.38;;;11.34;100.00
38718;BME280;24468;52.128;9.278;2023-02-18T09:46:56;100457.16;;;10.90;100.00
38718;BME280;24468;52.128;9.278;2023-02-18T09:49:33;100496.13;;;11.22;100.00
38718;BME280;24468;52.128;9.278;2023-02-18T09:52:31;100507.19;;;11.16;100.00
38718;BME280;24468;52.128;9.278;2023-02-18T09:54:58;100478.66;;;11.10;100.00
38718;BME280;24468;52.128;9.278;2023-02-18T09:57:49;100505.16;;;11.02;100.00
38718;BME280;24468;52.128;9.278;2023-02-18T10:00:24;100484.00;;;11.12;100.00
38718;BME280;24468;52.128;9.278;2023-02-18T10:03:00;100483.69;;;11.37;100.00
38718;BME280;24468;52.128;9.278;2023-02-18T10:05:30;100468.81;;;11.28;100.00
38718;BME280;24468;52.128;9.278;2023-02-18T10:08:12;100470.72;;;11.26;100.00
38718;BME280;24468;52.128;9.278;2023-02-18T10:10:45;100486.56;;;10.96;100.00
38718;BME280;24468;52.128;9.278;2023-02-18T10:13:23;100482.34;;;11.09;100.00
38718;BME280;24468;52.128;9.278;2023-02-18T10:15:50;100483.06;;;11.13;100.00
38718;BME280;24468;52.128;9.278;2023-02-18T10:18:30;100480.81;;;11.23;100.00
38718;BME280;24468;52.128;9.278;2023-02-18T10:21:10;100476.34;;;10.84;100.00
38718;BME280;24468;52.128;9.278;2023-02-18T10:23:53;100478.63;;;11.12;100.00
38718;BME280;24468;52.128;9.278;2023-02-18T10:26:21;100483.84;;;10.96;100.00
38718;BME280;24468;52.128;9.278;2023-02-18T10:28:48;100507.28;;;10.96;100.00
38718;BME280;24468;52.128;9.278;2023-02-18T10:31:28;100486.78;;;11.10;100.00
38718;BME280;24468;52.128;9.278;2023-02-18T10:37:26;100466.22;;;10.89;100.00
38718;BME280;24468;52.128;9.278;2023-02-18T10:40:34;100470.22;;;10.99;100.00
38718;BME280;24468;52.128;9.278;2023-02-18T10:43:43;100489.72;;;11.25;100.00
38718;BME280;24468;52.128;9.278;2023-02-18T10:46:27;100480.19;;;11.16;100.00
38718;BME280;24468;52.128;9.278;2023-02-18T10:51:34;100516.59;;;10.88;100.00
38718;BME280;24468;52.128;9.278;2023-02-18T10:54:02;100459.19;;;10.85;100.00
38718;BME280;24468;52.128;9.278;2023-02-18T10:56:48;100465.03;;;10.76;100.00
38718;BME280;24468;52.128;9.278;2023-02-18T10:59:26;100482.03;;;10.97;100.00
38718;BME280;24468;52.128;9.278;2023-02-18T11:01:56;100467.16;;;10.88;100.00
38718;BME280;24468;52.128;9.278;2023-02-18T11:04:33;100436.56;;;10.68;100.00
38718;BME280;24468;52.128;9.278;2023-02-18T11:07:05;100491.28;;;10.91;100.00
38718;BME280;24468;52.128;9.278;2023-02-18T11:09:47;100449.94;;;10.90;100.00
38718;BME280;24468;52.128;9.278;2023-02-18T11:12:22;100486.56;;;10.96;100.00
38718;BME280;24468;52.128;9.278;2023-02-18T11:17:44;100483.50;;;11.04;100.00
38718;BME280;24468;52.128;9.278;2023-02-18T11:20:21;100495.66;;;10.94;100.00
38718;BME280;24468;52.128;9.278;2023-02-18T11:22:48;100486.19;;;10.85;100.00
38718;BME280;24468;52.128;9.278;2023-02-18T11:25:39;100478.84;;;10.49;100.00
38718;BME280;24468;52.128;9.278;2023-02-18T11:28:36;100491.41;;;10.69;100.00
38718;BME280;24468;52.128;9.278;2023-02-18T11:31:04;100469.25;;;10.62;100.00
38718;BME280;24468;52.128;9.278;2023-02-18T11:33:38;100476.22;;;10.66;100.00
38718;BME280;24468;52.128;9.278;2023-02-18T11:36:30;100496.78;;;10.69;100.00
38718;BME280;24468;52.128;9.278;2023-02-18T11:39:05;100497.72;;;10.49;100.00
38718;BME280;24468;52.128;9.278;2023-02-18T11:41:46;100491.72;;;10.82;100.00
38718;BME280;24468;52.128;9.278;2023-02-18T11:44:35;100494.91;;;10.32;100.00
38718;BME280;24468;52.128;9.278;2023-02-18T11:49:43;100503.84;;;10.32;100.00
38718;BME280;24468;52.128;9.278;2023-02-18T11:52:39;100496.59;;;10.34;100.00
38718;BME280;24468;52.128;9.278;2023-02-18T11:55:16;100512.63;;;10.37;100.00
38718;BME280;24468;52.128;9.278;2023-02-18T12:00:46;100528.41;;;10.24;100.00
38718;BME280;24468;52.128;9.278;2023-02-18T12:09:35;100500.47;;;10.27;100.00
38718;BME280;24468;52.128;9.278;2023-02-18T12:12:15;100503.88;;;10.10;100.00
38718;BME280;24468;52.128;9.278;2023-02-18T12:14:43;100484.88;;;10.13;100.00
38718;BME280;24468;52.128;9.278;2023-02-18T12:29:12;100469.91;;;10.06;100.00
38718;BME280;24468;52.128;9.278;2023-02-18T12:32:11;100472.53;;;10.08;100.00
38718;BME280;24468;52.128;9.278;2023-02-18T12:35:11;100502.47;;;10.22;100.00
38718;BME280;24468;52.128;9.278;2023-02-18T12:37:50;100509.13;;;10.13;100.00
38718;BME280;24468;52.128;9.278;2023-02-18T12:40:39;100505.91;;;10.25;100.00
38718;BME280;24468;52.128;9.278;2023-02-18T12:43:51;100508.91;;;9.97;100.00
38718;BME280;24468;52.128;9.278;2023-02-18T12:57:06;100510.25;;;10.30;100.00
38718;BME280;24468;52.128;9.278;2023-02-18T13:00:14;100523.31;;;10.18;100.00
38718;BME280;24468;52.128;9.278;2023-02-18T13:03:30;100532.25;;;10.19;100.00
38718;BME280;24468;52.128;9.278;2023-02-18T13:12:34;100529.72;;;10.36;100.00
38718;BME280;24468;52.128;9.278;2023-02-18T13:15:10;100527.25;;;10.32;100.00
38718;BME280;24468;52.128;9.278;2023-02-18T13:17:41;100537.91;;;10.35;100.00
38718;BME280;24468;52.128;9.278;2023-02-18T13:20:19;100521.03;;;10.30;100.00
38718;BME280;24468;52.128;9.278;2023-02-18T13:22:46;100536.03;;;10.37;100.00
38718;BME280;24468;52.128;9.278;2023-02-18T13:25:16;100514.56;;;10.54;100.00
38718;BME280;24468;52.128;9.278;2023-02-18T13:31:01;100533.72;;;10.48;100.00
38718;BME280;24468;52.128;9.278;2023-02-18T13:39:17;100535.66;;;10.44;100.00
38718;BME280;24468;52.128;9.278;2023-02-18T13:41:50;100535.13;;;10.57;100.00
38718;BME280;24468;52.128;9.278;2023-02-18T13:46:55;100532.31;;;10.60;100.00
38718;BME280;24468;52.128;9.278;2023-02-18T13:49:33;100527.09;;;10.55;100.00
38718;BME280;24468;52.128;9.278;2023-02-18T13:52:01;100528.72;;;10.39;100.00
38718;BME280;24468;52.128;9.278;2023-02-18T13:54:31;100522.78;;;10.31;100.00
38718;BME280;24468;52.128;9.278;2023-02-18T13:57:01;100516.78;;;10.44;100.00
38718;BME280;24468;52.128;9.278;2023-02-18T14:07:51;100510.81;;;10.38;100.00
38718;BME280;24468;52.128;9.278;2023-02-18T14:28:56;100547.28;;;10.46;100.00
38718;BME280;24468;52.128;9.278;2023-02-18T14:31:32;100556.06;;;10.31;100.00
38718;BME280;24468;52.128;9.278;2023-02-18T14:46:57;100566.75;;;10.33;100.00
38718;BME280;24468;52.128;9.278;2023-02-18T14:49:51;100566.97;;;10.49;100.00
38718;BME280;24468;52.128;9.278;2023-02-18T14:52:46;100560.72;;;10.48;100.00
38718;BME280;24468;52.128;9.278;2023-02-18T14:55:31;100595.97;;;10.43;100.00
38718;BME280;24468;52.128;9.278;2023-02-18T14:58:19;100565.81;;;10.54;100.00
38718;BME280;24468;52.128;9.278;2023-02-18T15:00:47;100579.97;;;10.39;100.00
38718;BME280;24468;52.128;9.278;2023-02-18T15:03:16;100585.31;;;10.40;100.00
38718;BME280;24468;52.128;9.278;2023-02-18T15:05:44;100596.56;;;10.50;100.00
38718;BME280;24468;52.128;9.278;2023-02-18T15:08:22;100579.72;;;10.45;100.00
38718;BME280;24468;52.128;9.278;2023-02-18T15:10:58;100584.03;;;10.49;100.00
38718;BME280;24468;52.128;9.278;2023-02-18T15:16:05;100581.06;;;10.55;100.00
38718;BME280;24468;52.128;9.278;2023-02-18T15:18:43;100587.00;;;10.43;100.00
38718;BME280;24468;52.128;9.278;2023-02-18T15:21:43;100598.28;;;10.31;100.00
38718;BME280;24468;52.128;9.278;2023-02-18T15:24:32;100588.19;;;10.36;100.00
38718;BME280;24468;52.128;9.278;2023-02-18T15:27:09;100606.16;;;10.37;100.00
38718;BME280;24468;52.128;9.278;2023-02-18T15:29:36;100600.16;;;10.51;100.00
38718;BME280;24468;52.128;9.278;2023-02-18T15:34:50;100607.69;;;10.42;100.00
38718;BME280;24468;52.128;9.278;2023-02-18T15:37:16;100594.13;;;10.44;100.00